SULAYMANIYAH INTERNATIONAL AIRPORT
  • SulyAir
  • SulyAir
1 1
Arrival

ArrivalsMore >>

Departure

DeparturesMore >>

TAF

TAF ORSU 251700Z 2518/2618 VRB02KT CAVOK
BECMG 2606/2608 28010KT 9999 FEW045 SCT080=

METARs

METAR ORSU 252200Z 33005KT CAVOK 08/M05 Q1020=